createdAt,value
2023-03-04T00:00:31.006Z,85.53
2023-03-04T00:02:57.561Z,85.38
2023-03-04T00:05:24.267Z,85.09
2023-03-04T00:07:50.734Z,85.92
2023-03-04T00:10:17.447Z,86.48
2023-03-04T00:12:44.033Z,86.19
2023-03-04T00:15:10.836Z,87.31
2023-03-04T00:17:37.256Z,87.22
2023-03-04T00:20:03.967Z,87.65
2023-03-04T00:22:30.454Z,88.63
2023-03-04T00:24:57.052Z,88.81
2023-03-04T00:27:23.560Z,88.98
2023-03-04T00:29:50.184Z,89.54
2023-03-04T00:32:18.280Z,89.19
2023-03-04T00:34:44.847Z,89.25
2023-03-04T00:37:11.349Z,89.36
2023-03-04T00:39:37.860Z,89.52
2023-03-04T00:42:04.417Z,89.61
2023-03-04T00:44:30.888Z,90.03
2023-03-04T00:46:57.481Z,90.34
2023-03-04T00:49:24.158Z,90.04
2023-03-04T00:51:50.697Z,89.50
2023-03-04T00:54:17.198Z,90.02
2023-03-04T00:56:43.891Z,89.80
2023-03-04T00:59:10.395Z,89.67
2023-03-04T01:01:37.014Z,90.05
2023-03-04T01:04:03.651Z,90.52
2023-03-04T01:06:30.229Z,91.52
2023-03-04T01:08:56.740Z,91.60
2023-03-04T01:11:23.353Z,91.98
2023-03-04T01:13:49.857Z,91.67
2023-03-04T01:16:16.428Z,91.77
2023-03-04T01:18:42.944Z,92.50
2023-03-04T01:21:09.556Z,92.03
2023-03-04T01:23:36.013Z,92.35
2023-03-04T01:26:02.990Z,91.92
2023-03-04T01:28:29.698Z,91.78
2023-03-04T01:30:57.453Z,90.44
2023-03-04T01:33:24.124Z,89.71
2023-03-04T01:35:50.786Z,89.43
2023-03-04T01:38:17.354Z,89.54
2023-03-04T01:40:44.059Z,89.36
2023-03-04T01:43:20.348Z,89.10
2023-03-04T01:45:48.496Z,89.17
2023-03-04T01:48:16.878Z,89.34
2023-03-04T01:50:43.385Z,89.47
2023-03-04T01:53:15.318Z,89.23
2023-03-04T01:55:41.939Z,89.52
2023-03-04T01:58:10.280Z,89.94
2023-03-04T02:00:37.517Z,90.09
2023-03-04T02:03:08.030Z,90.25
2023-03-04T02:05:37.167Z,90.47
2023-03-04T02:08:04.553Z,91.74
2023-03-04T02:10:31.231Z,91.40
2023-03-04T02:12:58.588Z,91.58
2023-03-04T02:15:25.871Z,92.82
2023-03-04T02:17:52.364Z,93.83
2023-03-04T02:20:21.739Z,94.75
2023-03-04T02:23:01.088Z,95.37
2023-03-04T02:25:31.435Z,95.86
2023-03-04T02:27:58.606Z,96.70
2023-03-04T02:30:25.641Z,97.09
2023-03-04T02:32:52.646Z,97.58
2023-03-04T02:35:20.175Z,97.34
2023-03-04T02:37:46.941Z,97.98
2023-03-04T02:40:43.326Z,98.00
2023-03-04T02:43:11.446Z,97.58
2023-03-04T02:45:40.712Z,98.18
2023-03-04T02:48:08.647Z,97.88
2023-03-04T02:50:41.011Z,98.47
2023-03-04T02:53:07.585Z,98.60
2023-03-04T02:55:34.165Z,98.43
2023-03-04T02:58:00.900Z,98.23
2023-03-04T03:00:28.011Z,97.93
2023-03-04T03:02:57.042Z,97.96
2023-03-04T03:05:25.284Z,97.81
2023-03-04T03:07:51.948Z,97.34
2023-03-04T03:10:18.709Z,96.73
2023-03-04T03:12:45.802Z,96.71
2023-03-04T03:15:12.843Z,95.90
2023-03-04T03:17:39.514Z,93.96
2023-03-04T03:20:06.390Z,93.66
2023-03-04T03:22:33.087Z,92.16
2023-03-04T03:24:59.576Z,91.72
2023-03-04T03:27:26.167Z,90.91
2023-03-04T03:29:53.276Z,90.01
2023-03-04T03:32:19.797Z,89.37
2023-03-04T03:34:49.143Z,89.31
2023-03-04T03:37:15.781Z,88.88
2023-03-04T03:39:42.291Z,89.36
2023-03-04T03:42:08.859Z,89.36
2023-03-04T03:44:35.356Z,88.44
2023-03-04T03:47:02.483Z,87.49
2023-03-04T03:49:29.019Z,87.82
2023-03-04T03:51:55.635Z,88.46
2023-03-04T03:54:22.181Z,88.52
2023-03-04T03:56:48.658Z,88.42
2023-03-04T03:59:15.228Z,88.55
2023-03-04T04:01:41.815Z,89.14
2023-03-04T04:04:08.341Z,89.39
2023-03-04T04:06:34.934Z,90.10
2023-03-04T04:09:01.485Z,90.45
2023-03-04T04:11:28.176Z,90.82
2023-03-04T04:13:54.620Z,91.87
2023-03-04T04:16:21.162Z,92.36
2023-03-04T04:18:47.630Z,92.64
2023-03-04T04:21:14.637Z,93.16
2023-03-04T04:23:41.181Z,93.71
2023-03-04T04:26:07.711Z,94.40
2023-03-04T04:28:34.244Z,94.77
2023-03-04T04:31:00.936Z,94.47
2023-03-04T04:33:27.593Z,94.20
2023-03-04T04:35:54.074Z,94.34
2023-03-04T04:38:20.540Z,94.24
2023-03-04T04:40:47.053Z,94.38
2023-03-04T04:43:13.728Z,94.41
2023-03-04T04:45:40.294Z,93.95
2023-03-04T04:48:06.848Z,93.67
2023-03-04T04:50:33.421Z,93.26
2023-03-04T04:53:00.038Z,92.88
2023-03-04T04:55:26.921Z,93.56
2023-03-04T04:57:53.401Z,93.68
2023-03-04T05:00:20.240Z,93.43
2023-03-04T05:02:46.805Z,93.12
2023-03-04T05:05:13.370Z,92.99
2023-03-04T05:07:39.845Z,92.64
2023-03-04T05:10:06.634Z,92.09
2023-03-04T05:12:33.084Z,91.51
2023-03-04T05:14:59.633Z,90.92
2023-03-04T05:17:26.238Z,90.66
2023-03-04T05:19:52.773Z,89.97
2023-03-04T05:22:19.542Z,89.15
2023-03-04T05:24:46.072Z,88.69
2023-03-04T05:27:12.591Z,87.84
2023-03-04T05:29:39.256Z,87.19
2023-03-04T05:32:05.785Z,87.22
2023-03-04T05:34:32.409Z,87.30
2023-03-04T05:36:58.971Z,87.04
2023-03-04T05:39:25.464Z,86.88
2023-03-04T05:41:51.956Z,86.99
2023-03-04T05:44:18.459Z,86.48
2023-03-04T05:46:45.017Z,86.27
2023-03-04T05:49:11.494Z,85.90
2023-03-04T05:51:38.000Z,84.87
2023-03-04T05:54:04.528Z,84.16
2023-03-04T05:56:31.784Z,82.58
2023-03-04T05:58:59.168Z,81.47
2023-03-04T06:01:26.128Z,80.25
2023-03-04T06:03:52.779Z,77.72
2023-03-04T06:06:19.338Z,75.77
2023-03-04T06:08:45.867Z,74.65
2023-03-04T06:11:12.382Z,74.28
2023-03-04T06:13:39.264Z,73.59
2023-03-04T06:16:06.489Z,72.42
2023-03-04T06:18:33.059Z,71.44
2023-03-04T06:21:00.237Z,70.07
2023-03-04T06:23:27.319Z,69.31
2023-03-04T06:25:54.757Z,68.52
2023-03-04T06:28:21.360Z,67.43
2023-03-04T06:30:47.885Z,66.82
2023-03-04T06:33:14.355Z,65.67
2023-03-04T06:35:41.072Z,65.99
2023-03-04T06:38:07.698Z,64.77
2023-03-04T06:40:34.188Z,64.29
2023-03-04T06:43:00.768Z,64.83
2023-03-04T06:45:27.291Z,65.49
2023-03-04T06:47:53.841Z,64.80
2023-03-04T06:50:20.454Z,63.61
2023-03-04T06:52:47.450Z,63.75
2023-03-04T06:55:14.153Z,64.89
2023-03-04T06:57:40.650Z,65.96
2023-03-04T07:00:07.400Z,67.24
2023-03-04T07:02:34.120Z,68.40
2023-03-04T07:05:00.664Z,69.34
2023-03-04T07:07:27.365Z,70.52
2023-03-04T07:09:53.921Z,70.57
2023-03-04T07:12:20.537Z,68.31
2023-03-04T07:14:46.991Z,65.91
2023-03-04T07:17:13.591Z,64.05
2023-03-04T07:19:40.552Z,62.47
2023-03-04T07:22:07.128Z,61.02
2023-03-04T07:24:33.630Z,59.71
2023-03-04T07:27:00.210Z,58.49
2023-03-04T07:29:26.768Z,56.50
2023-03-04T07:31:53.870Z,56.90
2023-03-04T07:34:20.544Z,55.69
2023-03-04T07:36:47.136Z,56.59
2023-03-04T07:39:13.935Z,55.11
2023-03-04T07:41:40.476Z,55.08
2023-03-04T07:44:07.608Z,54.11
2023-03-04T07:46:34.259Z,54.67
2023-03-04T07:49:00.757Z,54.87
2023-03-04T07:51:27.559Z,54.73
2023-03-04T07:53:58.195Z,56.04
2023-03-04T07:56:26.093Z,56.32
2023-03-04T07:58:53.779Z,55.92
2023-03-04T08:01:21.630Z,55.36
2023-03-04T08:03:48.210Z,56.29
2023-03-04T08:06:15.881Z,57.51
2023-03-04T08:08:43.149Z,58.07
2023-03-04T08:11:11.152Z,57.85
2023-03-04T08:13:38.003Z,59.09
2023-03-04T08:16:04.808Z,56.46
2023-03-04T08:18:31.502Z,56.66
2023-03-04T08:20:58.068Z,57.62
2023-03-04T08:23:24.697Z,56.90
2023-03-04T08:25:51.280Z,58.19
2023-03-04T08:28:18.164Z,58.41
2023-03-04T08:30:44.933Z,57.35
2023-03-04T08:33:11.571Z,55.05
2023-03-04T08:35:39.198Z,55.17
2023-03-04T08:38:06.278Z,53.58
2023-03-04T08:40:33.340Z,54.12
2023-03-04T08:42:59.941Z,54.31
2023-03-04T08:45:26.923Z,52.25
2023-03-04T08:47:53.692Z,51.75
2023-03-04T08:50:22.320Z,50.77
2023-03-04T08:52:49.126Z,51.33
2023-03-04T08:55:15.706Z,51.87
2023-03-04T08:57:42.954Z,50.47
2023-03-04T09:00:09.825Z,51.80
2023-03-04T09:02:36.312Z,52.81
2023-03-04T09:05:03.056Z,53.80
2023-03-04T09:07:29.548Z,53.13
2023-03-04T09:09:56.355Z,52.44
2023-03-04T09:12:22.951Z,52.63
2023-03-04T09:15:01.121Z,51.47
2023-03-04T09:17:35.218Z,51.97
2023-03-04T09:20:04.247Z,51.99
2023-03-04T09:22:31.116Z,52.21
2023-03-04T09:24:57.694Z,51.55
2023-03-04T09:27:24.187Z,51.47
2023-03-04T09:29:50.765Z,51.33
2023-03-04T09:32:20.129Z,50.91
2023-03-04T09:34:46.784Z,51.00
2023-03-04T09:37:13.410Z,49.47
2023-03-04T09:39:40.034Z,50.41
2023-03-04T09:42:07.704Z,50.01
2023-03-04T09:44:36.929Z,49.92
2023-03-04T09:47:05.873Z,50.22
2023-03-04T09:49:32.616Z,50.47
2023-03-04T09:52:04.769Z,50.21
2023-03-04T09:54:50.061Z,51.21
2023-03-04T09:57:28.008Z,51.21
2023-03-04T10:00:05.408Z,50.85
2023-03-04T10:03:05.757Z,51.25
2023-03-04T10:05:34.336Z,51.64
2023-03-04T10:08:24.214Z,49.85
2023-03-04T10:10:51.787Z,49.43
2023-03-04T10:13:23.579Z,48.15
2023-03-04T10:15:51.346Z,48.53
2023-03-04T10:18:27.615Z,46.76
2023-03-04T10:21:03.332Z,46.72
2023-03-04T10:23:31.273Z,45.25
2023-03-04T10:25:59.483Z,43.99
2023-03-04T10:28:30.393Z,44.30
2023-03-04T10:31:03.102Z,44.48
2023-03-04T10:33:31.120Z,43.82
2023-03-04T10:36:16.580Z,43.06
2023-03-04T10:38:45.492Z,42.89
2023-03-04T10:41:13.821Z,43.47
2023-03-04T10:43:40.537Z,44.44
2023-03-04T10:46:10.480Z,44.76
2023-03-04T10:48:40.406Z,46.43
2023-03-04T10:51:30.471Z,43.91
2023-03-04T10:53:58.720Z,43.35
2023-03-04T10:56:31.044Z,42.69
2023-03-04T10:59:16.272Z,42.22
2023-03-04T11:01:42.744Z,41.78
2023-03-04T11:04:18.762Z,41.94
2023-03-04T11:06:45.459Z,42.75
2023-03-04T11:09:24.246Z,42.53
2023-03-04T11:11:51.653Z,41.32
2023-03-04T11:14:30.338Z,42.04
2023-03-04T11:17:01.076Z,41.31
2023-03-04T11:19:47.960Z,41.22
2023-03-04T11:22:16.232Z,42.32
2023-03-04T11:24:43.218Z,39.08
2023-03-04T11:27:12.497Z,39.32
2023-03-04T11:29:43.948Z,38.96
2023-03-04T11:32:18.981Z,39.33
2023-03-04T11:34:45.679Z,38.22
2023-03-04T11:37:17.551Z,38.23
2023-03-04T11:39:47.871Z,37.66
2023-03-04T11:42:40.697Z,39.18
2023-03-04T11:45:28.906Z,38.40
2023-03-04T11:47:56.723Z,36.96
2023-03-04T11:50:29.530Z,39.15
2023-03-04T11:53:12.878Z,38.54
2023-03-04T11:56:00.796Z,38.05
2023-03-04T11:58:46.273Z,39.15
2023-03-04T12:01:28.145Z,39.49
2023-03-04T12:04:03.576Z,38.87
2023-03-04T12:06:30.140Z,38.79
2023-03-04T12:09:16.132Z,38.07
2023-03-04T12:11:51.669Z,39.49
2023-03-04T12:14:21.047Z,39.22
2023-03-04T12:16:57.925Z,39.34
2023-03-04T12:19:39.576Z,39.84
2023-03-04T12:22:20.320Z,39.42
2023-03-04T12:24:49.625Z,38.62
2023-03-04T12:27:34.833Z,38.75
2023-03-04T12:30:06.965Z,39.06
2023-03-04T12:33:06.054Z,38.74
2023-03-04T12:35:46.774Z,39.26
2023-03-04T12:38:25.204Z,38.58
2023-03-04T12:41:04.266Z,38.74
2023-03-04T12:43:36.418Z,38.79
2023-03-04T12:46:32.702Z,39.24
2023-03-04T12:49:20.193Z,38.62
2023-03-04T12:52:05.374Z,38.66
2023-03-04T12:54:34.716Z,38.76
2023-03-04T12:57:14.630Z,38.44
2023-03-04T12:59:55.654Z,38.37
2023-03-04T13:02:34.134Z,38.81
2023-03-04T13:05:12.666Z,38.23
2023-03-04T13:07:47.273Z,38.55
2023-03-04T13:10:17.046Z,38.56
2023-03-04T13:12:48.630Z,38.28
2023-03-04T13:15:26.788Z,38.49
2023-03-04T13:17:54.618Z,38.54
2023-03-04T13:20:31.956Z,38.39
2023-03-04T13:23:05.031Z,38.43
2023-03-04T13:25:31.505Z,38.31
2023-03-04T13:28:03.944Z,38.24
2023-03-04T13:30:37.857Z,38.44
2023-03-04T13:33:10.682Z,38.36
2023-03-04T13:35:49.721Z,37.74
2023-03-04T13:38:37.317Z,38.46
2023-03-04T13:41:06.941Z,38.62
2023-03-04T13:43:39.783Z,39.53
2023-03-04T13:46:18.764Z,39.84
2023-03-04T13:48:51.703Z,40.45
2023-03-04T13:51:33.280Z,40.37
2023-03-04T13:53:59.825Z,41.78
2023-03-04T13:56:29.353Z,41.95
2023-03-04T13:59:01.918Z,41.98
2023-03-04T14:01:30.453Z,42.19
2023-03-04T14:03:57.849Z,42.43
2023-03-04T14:06:26.857Z,42.02
2023-03-04T14:08:54.150Z,42.56
2023-03-04T14:11:23.739Z,42.62
2023-03-04T14:13:50.413Z,42.39
2023-03-04T14:16:21.422Z,42.14
2023-03-04T14:18:58.136Z,43.40
2023-03-04T14:21:24.707Z,43.22
2023-03-04T14:24:01.911Z,43.41
2023-03-04T14:26:30.993Z,44.01
2023-03-04T14:28:59.572Z,44.07
2023-03-04T14:31:30.197Z,43.93
2023-03-04T14:34:04.516Z,43.88
2023-03-04T14:36:32.761Z,43.57
2023-03-04T14:39:01.339Z,44.22
2023-03-04T14:41:35.837Z,44.50
2023-03-04T14:44:08.799Z,44.91
2023-03-04T14:46:40.317Z,44.71
2023-03-04T14:49:07.730Z,44.73
2023-03-04T14:51:42.476Z,45.06
2023-03-04T14:54:26.506Z,44.65
2023-03-04T14:56:53.156Z,44.54
2023-03-04T14:59:27.779Z,45.07
2023-03-04T15:01:54.339Z,45.13
2023-03-04T15:04:21.019Z,44.81
2023-03-04T15:06:49.835Z,44.71
2023-03-04T15:09:24.017Z,45.01
2023-03-04T15:11:51.844Z,45.32
2023-03-04T15:14:36.930Z,45.17
2023-03-04T15:17:03.519Z,45.28
2023-03-04T15:19:30.162Z,44.97
2023-03-04T15:22:03.656Z,45.31
2023-03-04T15:24:30.126Z,45.29
2023-03-04T15:27:04.253Z,45.68
2023-03-04T15:29:30.845Z,45.19
2023-03-04T15:31:57.476Z,45.60
2023-03-04T15:34:23.997Z,45.20
2023-03-04T15:36:50.962Z,45.99
2023-03-04T15:39:18.168Z,45.66
2023-03-04T15:41:46.579Z,46.36
2023-03-04T15:44:13.326Z,46.50
2023-03-04T15:46:39.942Z,46.03
2023-03-04T15:49:06.473Z,46.14
2023-03-04T15:51:33.080Z,46.73
2023-03-04T15:54:00.141Z,46.72
2023-03-04T15:56:28.337Z,46.11
2023-03-04T15:58:56.302Z,46.82
2023-03-04T16:01:23.587Z,46.76
2023-03-04T16:03:53.115Z,47.24
2023-03-04T16:06:21.452Z,47.12
2023-03-04T16:08:49.636Z,47.37
2023-03-04T16:11:17.618Z,47.77
2023-03-04T16:13:44.221Z,47.60
2023-03-04T16:16:12.144Z,48.07
2023-03-04T16:18:38.965Z,48.75
2023-03-04T16:21:06.333Z,49.36
2023-03-04T16:23:36.076Z,49.45
2023-03-04T16:26:02.615Z,49.46
2023-03-04T16:28:29.137Z,49.87
2023-03-04T16:30:55.751Z,50.57
2023-03-04T16:33:22.296Z,50.52
2023-03-04T16:35:48.950Z,50.94
2023-03-04T16:38:21.189Z,51.14
2023-03-04T16:40:47.807Z,51.24
2023-03-04T16:43:14.749Z,51.51
2023-03-04T16:45:41.520Z,51.46
2023-03-04T16:48:08.048Z,51.52
2023-03-04T16:50:35.788Z,51.54
2023-03-04T16:53:03.176Z,52.07
2023-03-04T16:55:30.525Z,51.96
2023-03-04T16:58:00.260Z,52.43
2023-03-04T17:00:28.096Z,52.27
2023-03-04T17:02:58.916Z,52.73
2023-03-04T17:05:26.976Z,53.13
2023-03-04T17:07:53.536Z,53.02
2023-03-04T17:10:20.551Z,53.34
2023-03-04T17:12:47.463Z,53.57
2023-03-04T17:15:14.993Z,53.79
2023-03-04T17:17:42.197Z,54.38
2023-03-04T17:20:10.089Z,54.88
2023-03-04T17:22:36.772Z,55.25
2023-03-04T17:25:03.657Z,55.60
2023-03-04T17:27:30.703Z,55.84
2023-03-04T17:29:57.463Z,56.18
2023-03-04T17:32:24.217Z,55.81
2023-03-04T17:34:50.808Z,55.96
2023-03-04T17:37:17.355Z,56.43
2023-03-04T17:39:43.921Z,56.76
2023-03-04T17:42:10.503Z,56.93
2023-03-04T17:44:37.177Z,56.80
2023-03-04T17:47:04.348Z,56.98
2023-03-04T17:49:30.912Z,57.41
2023-03-04T17:51:57.458Z,57.39
2023-03-04T17:54:23.953Z,57.67
2023-03-04T17:56:50.563Z,57.73
2023-03-04T17:59:17.518Z,57.77
2023-03-04T18:01:45.217Z,58.26
2023-03-04T18:04:14.531Z,58.74
2023-03-04T18:06:41.622Z,58.86
2023-03-04T18:09:08.169Z,59.00
2023-03-04T18:11:36.150Z,59.36
2023-03-04T18:14:02.835Z,59.64
2023-03-04T18:16:29.515Z,59.87
2023-03-04T18:19:00.124Z,60.02
2023-03-04T18:21:29.926Z,60.36
2023-03-04T18:23:57.237Z,60.33
2023-03-04T18:26:24.125Z,60.63
2023-03-04T18:28:51.953Z,60.84
2023-03-04T18:31:22.507Z,60.99
2023-03-04T18:33:49.380Z,61.22
2023-03-04T18:36:16.262Z,61.12
2023-03-04T18:38:42.778Z,61.43
2023-03-04T18:41:10.734Z,61.39
2023-03-04T18:43:37.304Z,61.78
2023-03-04T18:46:08.646Z,62.19
2023-03-04T18:48:41.765Z,61.82
2023-03-04T18:51:08.330Z,62.35
2023-03-04T18:53:35.014Z,62.53
2023-03-04T18:56:06.577Z,62.21
2023-03-04T18:58:34.192Z,62.69
2023-03-04T19:01:01.832Z,61.83
2023-03-04T19:03:28.999Z,61.72
2023-03-04T19:05:55.550Z,62.03
2023-03-04T19:08:22.076Z,61.42
2023-03-04T19:10:48.601Z,61.51
2023-03-04T19:13:18.277Z,61.42
2023-03-04T19:15:45.243Z,61.41
2023-03-04T19:18:11.745Z,61.53
2023-03-04T19:20:40.279Z,61.49
2023-03-04T19:23:09.110Z,61.50
2023-03-04T19:25:38.475Z,61.06
2023-03-04T19:28:05.407Z,61.64
2023-03-04T19:30:32.307Z,61.84
2023-03-04T19:32:59.365Z,61.60
2023-03-04T19:35:25.943Z,62.38
2023-03-04T19:37:52.479Z,62.83
2023-03-04T19:40:19.133Z,62.77
2023-03-04T19:42:45.663Z,63.34
2023-03-04T19:45:12.246Z,62.98
2023-03-04T19:47:39.297Z,63.45
2023-03-04T19:50:07.028Z,63.64
2023-03-04T19:52:33.859Z,64.48
2023-03-04T19:55:00.503Z,64.46
2023-03-04T19:57:27.153Z,64.51
2023-03-04T19:59:53.678Z,64.20
2023-03-04T20:02:20.241Z,63.82
2023-03-04T20:04:46.836Z,64.44
2023-03-04T20:07:13.380Z,63.61
2023-03-04T20:09:40.013Z,63.86
2023-03-04T20:12:06.643Z,63.72
2023-03-04T20:14:34.013Z,63.58
2023-03-04T20:17:02.572Z,63.92
2023-03-04T20:19:29.987Z,64.27
2023-03-04T20:21:56.524Z,64.03
2023-03-04T20:24:23.673Z,64.11
2023-03-04T20:26:50.984Z,63.74
2023-03-04T20:29:17.999Z,63.43
2023-03-04T20:31:46.295Z,63.00
2023-03-04T20:34:13.294Z,62.91
2023-03-04T20:36:39.932Z,62.95
2023-03-04T20:39:18.294Z,62.79
2023-03-04T20:41:52.251Z,63.28
2023-03-04T20:44:18.729Z,63.31
2023-03-04T20:46:46.361Z,63.69
2023-03-04T20:49:15.137Z,63.57
2023-03-04T20:51:41.967Z,63.88
2023-03-04T20:54:09.131Z,64.10
2023-03-04T20:56:36.425Z,63.88
2023-03-04T20:59:04.473Z,63.61
2023-03-04T21:01:31.561Z,64.03
2023-03-04T21:03:59.205Z,64.22
2023-03-04T21:06:25.761Z,64.12
2023-03-04T21:08:52.301Z,64.51
2023-03-04T21:11:19.161Z,64.77
2023-03-04T21:13:53.594Z,64.77
2023-03-04T21:16:20.244Z,64.60
2023-03-04T21:18:46.884Z,64.32
2023-03-04T21:21:14.510Z,64.84
2023-03-04T21:23:41.116Z,64.68
2023-03-04T21:26:07.732Z,64.11
2023-03-04T21:28:34.500Z,63.98
2023-03-04T21:31:01.077Z,63.67
2023-03-04T21:33:30.708Z,63.48
2023-03-04T21:35:57.314Z,63.47
2023-03-04T21:38:23.775Z,63.36
2023-03-04T21:40:50.746Z,63.35
2023-03-04T21:43:22.476Z,63.38
2023-03-04T21:45:56.296Z,63.61
2023-03-04T21:48:23.656Z,63.42
2023-03-04T21:50:50.223Z,63.58
2023-03-04T21:53:21.422Z,63.77
2023-03-04T21:55:49.007Z,63.79
2023-03-04T21:58:15.495Z,63.82
2023-03-04T22:00:42.028Z,64.20
2023-03-04T22:03:08.636Z,64.67
2023-03-04T22:05:38.659Z,64.69
2023-03-04T22:08:05.341Z,64.64
2023-03-04T22:10:31.872Z,65.12
2023-03-04T22:12:58.466Z,64.52
2023-03-04T22:15:24.981Z,64.03
2023-03-04T22:17:51.559Z,63.92
2023-03-04T22:20:18.140Z,63.84
2023-03-04T22:22:44.613Z,63.11
2023-03-04T22:25:11.094Z,62.92
2023-03-04T22:27:37.661Z,62.69
2023-03-04T22:30:04.335Z,62.25
2023-03-04T22:32:30.869Z,62.35
2023-03-04T22:34:57.399Z,62.03
2023-03-04T22:37:23.934Z,61.66
2023-03-04T22:39:50.469Z,61.71
2023-03-04T22:42:17.017Z,61.31
2023-03-04T22:44:43.490Z,61.31
2023-03-04T22:47:10.199Z,60.91
2023-03-04T22:49:37.775Z,61.05
2023-03-04T22:52:04.290Z,60.95
2023-03-04T22:54:30.999Z,60.91
2023-03-04T22:56:57.460Z,60.65
2023-03-04T22:59:23.965Z,60.43
2023-03-04T23:01:50.695Z,60.33
2023-03-04T23:04:17.169Z,60.17
2023-03-04T23:06:43.805Z,60.30
2023-03-04T23:09:10.313Z,60.33
2023-03-04T23:11:36.986Z,60.30
2023-03-04T23:14:06.913Z,60.46
2023-03-04T23:16:37.177Z,60.65
2023-03-04T23:19:04.752Z,60.52
2023-03-04T23:21:34.044Z,60.58
2023-03-04T23:24:04.559Z,60.60
2023-03-04T23:26:32.473Z,60.71
2023-03-04T23:29:01.461Z,60.52
2023-03-04T23:31:29.048Z,60.79
2023-03-04T23:33:57.357Z,60.61
2023-03-04T23:36:25.202Z,60.73
2023-03-04T23:38:51.668Z,60.43
2023-03-04T23:41:19.336Z,60.50
2023-03-04T23:43:46.290Z,60.21
2023-03-04T23:46:13.225Z,60.28
2023-03-04T23:48:40.805Z,60.65
2023-03-04T23:51:08.609Z,60.31
2023-03-04T23:53:35.249Z,60.27
2023-03-04T23:56:01.719Z,60.26
2023-03-04T23:58:28.214Z,60.61
